sensor_id;sensor_type;location;lat;lon;timestamp;pressure;altitude;pressure_sealevel;temperature;humidity
42705;BME280;28342;42.594;23.414;2023-01-27T00:00:38;93595.84;;;1.08;91.80
42705;BME280;28342;42.594;23.414;2023-01-27T00:03:11;93557.63;;;0.78;91.51
42705;BME280;28342;42.594;23.414;2023-01-27T00:05:39;93552.75;;;0.62;92.34
42705;BME280;28342;42.594;23.414;2023-01-27T00:08:10;93575.28;;;0.92;92.12
42705;BME280;28342;42.594;23.414;2023-01-27T00:10:45;93567.44;;;0.92;92.10
42705;BME280;28342;42.594;23.414;2023-01-27T00:13:14;93571.25;;;1.14;91.45
42705;BME280;28342;42.594;23.414;2023-01-27T00:15:53;93539.78;;;0.90;91.60
42705;BME280;28342;42.594;23.414;2023-01-27T00:18:21;93533.00;;;0.95;91.42
42705;BME280;28342;42.594;23.414;2023-01-27T00:21:26;93546.47;;;1.07;91.52
42705;BME280;28342;42.594;23.414;2023-01-27T00:24:13;93544.91;;;1.11;91.12
42705;BME280;28342;42.594;23.414;2023-01-27T00:26:57;93552.47;;;1.12;90.98
42705;BME280;28342;42.594;23.414;2023-01-27T00:29:23;93559.50;;;1.12;91.50
42705;BME280;28342;42.594;23.414;2023-01-27T00:31:53;93520.53;;;0.76;91.51
42705;BME280;28342;42.594;23.414;2023-01-27T00:34:52;93549.94;;;0.97;91.64
42705;BME280;28342;42.594;23.414;2023-01-27T00:37:22;93534.50;;;1.01;91.68
42705;BME280;28342;42.594;23.414;2023-01-27T00:39:48;93527.78;;;0.89;91.42
42705;BME280;28342;42.594;23.414;2023-01-27T00:42:15;93543.63;;;1.03;91.02
42705;BME280;28342;42.594;23.414;2023-01-27T00:44:44;93515.84;;;0.78;91.44
42705;BME280;28342;42.594;23.414;2023-01-27T00:47:30;93543.94;;;0.97;91.33
42705;BME280;28342;42.594;23.414;2023-01-27T00:49:56;93558.78;;;1.01;91.75
42705;BME280;28342;42.594;23.414;2023-01-27T00:52:21;93559.53;;;1.07;91.19
42705;BME280;28342;42.594;23.414;2023-01-27T00:54:47;93559.97;;;0.75;92.06
42705;BME280;28342;42.594;23.414;2023-01-27T00:57:14;93540.91;;;0.74;91.84
42705;BME280;28342;42.594;23.414;2023-01-27T00:59:42;93539.34;;;0.78;91.50
42705;BME280;28342;42.594;23.414;2023-01-27T01:02:13;93534.59;;;0.85;91.06
42705;BME280;28342;42.594;23.414;2023-01-27T01:04:43;93544.94;;;1.01;91.12
42705;BME280;28342;42.594;23.414;2023-01-27T01:07:16;93545.63;;;0.77;91.75
42705;BME280;28342;42.594;23.414;2023-01-27T01:10:09;93528.88;;;0.83;91.48
42705;BME280;28342;42.594;23.414;2023-01-27T01:12:43;93545.72;;;1.01;91.40
42705;BME280;28342;42.594;23.414;2023-01-27T01:15:17;93536.59;;;0.99;91.71
42705;BME280;28342;42.594;23.414;2023-01-27T01:17:57;93565.47;;;1.17;91.57
42705;BME280;28342;42.594;23.414;2023-01-27T01:20:27;93554.84;;;1.09;91.80
42705;BME280;28342;42.594;23.414;2023-01-27T01:23:22;93573.28;;;1.23;91.85
42705;BME280;28342;42.594;23.414;2023-01-27T01:25:59;93556.34;;;1.15;91.58
42705;BME280;28342;42.594;23.414;2023-01-27T01:28:46;93510.63;;;0.78;91.79
42705;BME280;28342;42.594;23.414;2023-01-27T01:31:24;93521.78;;;0.89;91.44
42705;BME280;28342;42.594;23.414;2023-01-27T01:33:49;93562.63;;;1.14;91.23
42705;BME280;28342;42.594;23.414;2023-01-27T01:36:19;93532.47;;;0.93;91.08
42705;BME280;28342;42.594;23.414;2023-01-27T01:38:46;93560.56;;;1.11;91.19
42705;BME280;28342;42.594;23.414;2023-01-27T01:41:18;93570.22;;;1.10;91.24
42705;BME280;28342;42.594;23.414;2023-01-27T01:43:47;93561.88;;;1.08;91.01
42705;BME280;28342;42.594;23.414;2023-01-27T01:46:13;93538.66;;;1.02;90.98
42705;BME280;28342;42.594;23.414;2023-01-27T01:48:44;93552.22;;;1.09;91.38
42705;BME280;28342;42.594;23.414;2023-01-27T01:51:13;93572.44;;;1.32;91.06
42705;BME280;28342;42.594;23.414;2023-01-27T01:54:02;93524.38;;;0.94;91.60
42705;BME280;28342;42.594;23.414;2023-01-27T01:56:35;93528.69;;;1.14;91.12
42705;BME280;28342;42.594;23.414;2023-01-27T01:59:08;93530.19;;;1.25;91.22
42705;BME280;28342;42.594;23.414;2023-01-27T02:01:35;93492.19;;;1.04;91.43
42705;BME280;28342;42.594;23.414;2023-01-27T02:04:04;93510.59;;;1.23;91.30
42705;BME280;28342;42.594;23.414;2023-01-27T02:06:39;93499.13;;;1.18;90.82
42705;BME280;28342;42.594;23.414;2023-01-27T02:09:08;93463.19;;;1.05;90.66
42705;BME280;28342;42.594;23.414;2023-01-27T02:11:34;93485.28;;;1.18;91.12
42705;BME280;28342;42.594;23.414;2023-01-27T02:14:01;93485.13;;;1.04;91.86
42705;BME280;28342;42.594;23.414;2023-01-27T02:16:33;93463.19;;;1.05;91.75
42705;BME280;28342;42.594;23.414;2023-01-27T02:18:58;93468.78;;;0.88;91.83
42705;BME280;28342;42.594;23.414;2023-01-27T02:21:25;93463.66;;;0.73;92.41
42705;BME280;28342;42.594;23.414;2023-01-27T02:24:00;93518.59;;;0.97;92.92
42705;BME280;28342;42.594;23.414;2023-01-27T02:26:39;93460.78;;;0.80;92.41
42705;BME280;28342;42.594;23.414;2023-01-27T02:29:11;93477.47;;;0.79;92.97
42705;BME280;28342;42.594;23.414;2023-01-27T02:31:37;93494.34;;;0.92;93.17
42705;BME280;28342;42.594;23.414;2023-01-27T02:34:15;93475.91;;;0.78;93.05
42705;BME280;28342;42.594;23.414;2023-01-27T02:37:17;93512.78;;;1.05;92.98
42705;BME280;28342;42.594;23.414;2023-01-27T02:39:44;93458.53;;;0.58;93.53
42705;BME280;28342;42.594;23.414;2023-01-27T02:42:14;93462.28;;;0.42;94.03
42705;BME280;28342;42.594;23.414;2023-01-27T02:44:42;93462.00;;;0.48;94.07
42705;BME280;28342;42.594;23.414;2023-01-27T02:47:07;93492.91;;;0.70;93.65
42705;BME280;28342;42.594;23.414;2023-01-27T02:49:33;93467.41;;;0.57;93.47
42705;BME280;28342;42.594;23.414;2023-01-27T02:52:01;93529.78;;;1.03;92.93
42705;BME280;28342;42.594;23.414;2023-01-27T02:54:29;93481.66;;;0.80;92.59
42705;BME280;28342;42.594;23.414;2023-01-27T02:56:59;93496.94;;;0.97;92.22
42705;BME280;28342;42.594;23.414;2023-01-27T02:59:58;93517.69;;;1.17;91.89
42705;BME280;28342;42.594;23.414;2023-01-27T03:02:27;93505.22;;;1.04;92.12
42705;BME280;28342;42.594;23.414;2023-01-27T03:05:15;93493.81;;;0.95;92.09
42705;BME280;28342;42.594;23.414;2023-01-27T03:07:52;93458.53;;;0.63;93.09
42705;BME280;28342;42.594;23.414;2023-01-27T03:10:22;93488.94;;;0.83;93.39
42705;BME280;28342;42.594;23.414;2023-01-27T03:12:49;93477.22;;;0.75;93.26
42705;BME280;28342;42.594;23.414;2023-01-27T03:15:26;93471.44;;;0.83;93.05
42705;BME280;28342;42.594;23.414;2023-01-27T03:21:35;93473.22;;;0.88;93.25
42705;BME280;28342;42.594;23.414;2023-01-27T03:24:06;93490.38;;;0.99;93.36
42705;BME280;28342;42.594;23.414;2023-01-27T03:26:52;93439.94;;;0.70;93.72
42705;BME280;28342;42.594;23.414;2023-01-27T03:29:42;93448.66;;;0.94;93.59
42705;BME280;28342;42.594;23.414;2023-01-27T03:32:32;93422.66;;;0.79;93.58
42705;BME280;28342;42.594;23.414;2023-01-27T03:35:01;93423.28;;;1.00;93.31
42705;BME280;28342;42.594;23.414;2023-01-27T03:37:34;93396.31;;;0.75;93.51
42705;BME280;28342;42.594;23.414;2023-01-27T03:40:21;93425.69;;;0.91;93.65
42705;BME280;28342;42.594;23.414;2023-01-27T03:43:09;93423.84;;;0.97;93.82
42705;BME280;28342;42.594;23.414;2023-01-27T03:45:59;93439.44;;;1.02;93.39
42705;BME280;28342;42.594;23.414;2023-01-27T03:48:56;93428.34;;;0.86;93.89
42705;BME280;28342;42.594;23.414;2023-01-27T03:52:06;93430.88;;;0.96;93.83
42705;BME280;28342;42.594;23.414;2023-01-27T03:54:38;93413.56;;;0.71;94.01
42705;BME280;28342;42.594;23.414;2023-01-27T03:57:59;93451.00;;;0.90;93.88
42705;BME280;28342;42.594;23.414;2023-01-27T04:01:15;93427.16;;;0.68;93.75
42705;BME280;28342;42.594;23.414;2023-01-27T04:03:44;93451.00;;;0.90;93.35
42705;BME280;28342;42.594;23.414;2023-01-27T04:09:53;93458.53;;;0.58;93.62
42705;BME280;28342;42.594;23.414;2023-01-27T04:12:19;93486.31;;;0.83;92.89
42705;BME280;28342;42.594;23.414;2023-01-27T04:15:03;93494.88;;;0.88;93.31
42705;BME280;28342;42.594;23.414;2023-01-27T04:17:34;93442.81;;;0.68;93.30
42705;BME280;28342;42.594;23.414;2023-01-27T04:20:32;93471.94;;;0.85;93.03
42705;BME280;28342;42.594;23.414;2023-01-27T04:22:59;93453.78;;;0.70;93.36
42705;BME280;28342;42.594;23.414;2023-01-27T04:25:26;93488.66;;;0.84;93.20
42705;BME280;28342;42.594;23.414;2023-01-27T04:27:56;93512.19;;;0.79;93.34
42705;BME280;28342;42.594;23.414;2023-01-27T04:30:26;93529.31;;;0.96;92.70
42705;BME280;28342;42.594;23.414;2023-01-27T04:32:56;93506.59;;;0.96;92.04
42705;BME280;28342;42.594;23.414;2023-01-27T04:35:22;93491.78;;;0.86;91.99
42705;BME280;28342;42.594;23.414;2023-01-27T04:37:49;93493.97;;;0.69;92.43
42705;BME280;28342;42.594;23.414;2023-01-27T04:40:14;93499.00;;;0.55;91.51
42705;BME280;28342;42.594;23.414;2023-01-27T04:42:41;93504.44;;;0.64;91.55
42705;BME280;28342;42.594;23.414;2023-01-27T04:45:09;93481.22;;;0.63;92.27
42705;BME280;28342;42.594;23.414;2023-01-27T04:47:37;93484.34;;;0.59;92.39
42705;BME280;28342;42.594;23.414;2023-01-27T04:50:03;93499.22;;;0.64;91.81
42705;BME280;28342;42.594;23.414;2023-01-27T04:52:31;93518.09;;;0.95;91.52
42705;BME280;28342;42.594;23.414;2023-01-27T04:54:58;93479.06;;;0.75;91.53
42705;BME280;28342;42.594;23.414;2023-01-27T04:57:25;93491.47;;;0.49;91.60
42705;BME280;28342;42.594;23.414;2023-01-27T04:59:52;93522.41;;;0.71;92.08
42705;BME280;28342;42.594;23.414;2023-01-27T05:02:17;93488.38;;;0.47;92.51
42705;BME280;28342;42.594;23.414;2023-01-27T05:04:43;93489.91;;;0.48;93.22
42705;BME280;28342;42.594;23.414;2023-01-27T05:07:09;93492.47;;;0.58;92.92
42705;BME280;28342;42.594;23.414;2023-01-27T05:09:36;93488.78;;;0.64;92.88
42705;BME280;28342;42.594;23.414;2023-01-27T05:12:03;93518.94;;;0.85;92.52
42705;BME280;28342;42.594;23.414;2023-01-27T05:14:31;93486.69;;;0.66;92.57
42705;BME280;28342;42.594;23.414;2023-01-27T05:17:02;93489.56;;;0.65;92.26
42705;BME280;28342;42.594;23.414;2023-01-27T05:19:33;93525.16;;;0.95;92.00
42705;BME280;28342;42.594;23.414;2023-01-27T05:22:00;93491.81;;;0.76;92.25
42705;BME280;28342;42.594;23.414;2023-01-27T05:24:26;93502.25;;;0.76;92.82
42705;BME280;28342;42.594;23.414;2023-01-27T05:26:55;93459.50;;;0.72;92.24
42705;BME280;28342;42.594;23.414;2023-01-27T05:29:43;93487.66;;;0.80;91.94
42705;BME280;28342;42.594;23.414;2023-01-27T05:32:08;93491.81;;;0.76;92.04
42705;BME280;28342;42.594;23.414;2023-01-27T05:34:34;93522.44;;;1.10;91.85
42705;BME280;28342;42.594;23.414;2023-01-27T05:37:00;93462.38;;;0.71;92.05
42705;BME280;28342;42.594;23.414;2023-01-27T05:39:25;93452.22;;;0.69;92.31
42705;BME280;28342;42.594;23.414;2023-01-27T05:41:54;93453.25;;;0.68;92.34
42705;BME280;28342;42.594;23.414;2023-01-27T05:44:20;93475.09;;;0.82;92.50
42705;BME280;28342;42.594;23.414;2023-01-27T05:46:46;93502.66;;;0.99;92.33
42705;BME280;28342;42.594;23.414;2023-01-27T05:49:13;93522.13;;;1.16;91.89
42705;BME280;28342;42.594;23.414;2023-01-27T05:51:40;93515.66;;;1.09;91.89
42705;BME280;28342;42.594;23.414;2023-01-27T05:54:06;93504.72;;;1.02;91.51
42705;BME280;28342;42.594;23.414;2023-01-27T05:56:32;93511.81;;;0.96;91.99
42705;BME280;28342;42.594;23.414;2023-01-27T05:58:59;93528.19;;;1.07;91.44
42705;BME280;28342;42.594;23.414;2023-01-27T06:01:31;93524.00;;;1.11;91.18
42705;BME280;28342;42.594;23.414;2023-01-27T06:03:57;93514.88;;;1.08;91.22
42705;BME280;28342;42.594;23.414;2023-01-27T06:06:25;93509.41;;;1.05;91.27
42705;BME280;28342;42.594;23.414;2023-01-27T06:08:51;93521.91;;;1.13;91.16
42705;BME280;28342;42.594;23.414;2023-01-27T06:11:20;93508.84;;;1.13;90.57
42705;BME280;28342;42.594;23.414;2023-01-27T06:13:47;93489.59;;;0.99;90.87
42705;BME280;28342;42.594;23.414;2023-01-27T06:16:14;93498.44;;;1.03;90.65
42705;BME280;28342;42.594;23.414;2023-01-27T06:18:42;93522.84;;;1.22;90.34
42705;BME280;28342;42.594;23.414;2023-01-27T06:21:10;93504.06;;;1.20;90.24
42705;BME280;28342;42.594;23.414;2023-01-27T06:23:36;93494.94;;;1.23;89.99
42705;BME280;28342;42.594;23.414;2023-01-27T06:26:06;93466.34;;;1.02;89.94
42705;BME280;28342;42.594;23.414;2023-01-27T06:28:33;93494.38;;;1.26;90.02
42705;BME280;28342;42.594;23.414;2023-01-27T06:31:17;93517.84;;;1.31;91.00
42705;BME280;28342;42.594;23.414;2023-01-27T06:33:43;93481.19;;;1.07;90.97
42705;BME280;28342;42.594;23.414;2023-01-27T06:36:11;93517.63;;;1.27;90.88
42705;BME280;28342;42.594;23.414;2023-01-27T06:38:42;93496.34;;;1.05;91.04
42705;BME280;28342;42.594;23.414;2023-01-27T06:41:11;93521.84;;;1.18;91.02
42705;BME280;28342;42.594;23.414;2023-01-27T06:43:40;93513.47;;;1.21;90.56
42705;BME280;28342;42.594;23.414;2023-01-27T06:46:07;93516.63;;;1.18;90.82
42705;BME280;28342;42.594;23.414;2023-01-27T06:48:35;93518.94;;;1.25;90.84
42705;BME280;28342;42.594;23.414;2023-01-27T06:51:02;93522.84;;;1.27;90.62
42705;BME280;28342;42.594;23.414;2023-01-27T06:53:28;93519.25;;;1.18;90.51
42705;BME280;28342;42.594;23.414;2023-01-27T06:56:03;93522.72;;;1.03;90.79
42705;BME280;28342;42.594;23.414;2023-01-27T06:58:31;93509.72;;;0.98;91.10
42705;BME280;28342;42.594;23.414;2023-01-27T07:01:03;93510.00;;;0.92;91.14
42705;BME280;28342;42.594;23.414;2023-01-27T07:03:31;93543.78;;;1.17;91.59
42705;BME280;28342;42.594;23.414;2023-01-27T07:05:57;93562.13;;;1.12;92.16
42705;BME280;28342;42.594;23.414;2023-01-27T07:08:22;93504.31;;;0.84;91.64
42705;BME280;28342;42.594;23.414;2023-01-27T07:10:50;93532.88;;;1.10;91.43
42705;BME280;28342;42.594;23.414;2023-01-27T07:13:16;93529.69;;;1.18;90.93
42705;BME280;28342;42.594;23.414;2023-01-27T07:15:43;93530.94;;;1.26;91.26
42705;BME280;28342;42.594;23.414;2023-01-27T07:18:09;93529.63;;;1.28;91.60
42705;BME280;28342;42.594;23.414;2023-01-27T07:20:35;93500.06;;;0.99;91.47
42705;BME280;28342;42.594;23.414;2023-01-27T07:23:04;93507.84;;;1.09;91.93
42705;BME280;28342;42.594;23.414;2023-01-27T07:25:33;93544.00;;;1.26;91.77
42705;BME280;28342;42.594;23.414;2023-01-27T07:27:59;93506.84;;;1.00;91.84
42705;BME280;28342;42.594;23.414;2023-01-27T07:30:33;93530.28;;;1.05;91.87
42705;BME280;28342;42.594;23.414;2023-01-27T07:33:11;93532.34;;;1.13;91.99
42705;BME280;28342;42.594;23.414;2023-01-27T07:35:38;93541.00;;;1.08;91.67
42705;BME280;28342;42.594;23.414;2023-01-27T07:38:05;93506.13;;;0.89;91.88
42705;BME280;28342;42.594;23.414;2023-01-27T07:40:30;93533.63;;;1.15;91.84
42705;BME280;28342;42.594;23.414;2023-01-27T07:42:57;93550.03;;;1.21;92.14
42705;BME280;28342;42.594;23.414;2023-01-27T07:45:23;93551.63;;;1.17;91.63
42705;BME280;28342;42.594;23.414;2023-01-27T07:47:49;93537.69;;;0.93;91.61
42705;BME280;28342;42.594;23.414;2023-01-27T07:50:16;93544.41;;;1.04;91.86
42705;BME280;28342;42.594;23.414;2023-01-27T07:52:42;93548.06;;;1.08;92.13
42705;BME280;28342;42.594;23.414;2023-01-27T07:55:09;93513.38;;;0.97;91.96
42705;BME280;28342;42.594;23.414;2023-01-27T07:57:34;93566.09;;;1.43;91.20
42705;BME280;28342;42.594;23.414;2023-01-27T08:00:00;93569.72;;;1.47;91.02
42705;BME280;28342;42.594;23.414;2023-01-27T08:02:26;93546.31;;;1.32;91.15
42705;BME280;28342;42.594;23.414;2023-01-27T08:04:52;93548.34;;;1.40;91.29
42705;BME280;28342;42.594;23.414;2023-01-27T08:07:20;93501.56;;;1.10;90.29
42705;BME280;28342;42.594;23.414;2023-01-27T08:09:47;93496.84;;;1.07;90.95
42705;BME280;28342;42.594;23.414;2023-01-27T08:12:13;93547.34;;;1.31;90.59
42705;BME280;28342;42.594;23.414;2023-01-27T08:14:38;93496.56;;;1.13;90.76
42705;BME280;28342;42.594;23.414;2023-01-27T08:20:12;93536.97;;;1.21;90.26
42705;BME280;28342;42.594;23.414;2023-01-27T08:22:42;93545.75;;;1.35;90.50
42705;BME280;28342;42.594;23.414;2023-01-27T08:25:07;93508.00;;;1.23;90.49
42705;BME280;28342;42.594;23.414;2023-01-27T08:27:34;93555.50;;;1.59;90.68
42705;BME280;28342;42.594;23.414;2023-01-27T08:30:01;93535.22;;;1.45;90.07
42705;BME280;28342;42.594;23.414;2023-01-27T08:32:28;93526.34;;;1.46;90.19
42705;BME280;28342;42.594;23.414;2023-01-27T08:34:53;93535.41;;;1.25;90.49
42705;BME280;28342;42.594;23.414;2023-01-27T08:37:20;93565.03;;;1.44;90.40
42705;BME280;28342;42.594;23.414;2023-01-27T08:39:47;93561.81;;;1.53;90.07
42705;BME280;28342;42.594;23.414;2023-01-27T08:42:13;93553.03;;;1.43;90.51
42705;BME280;28342;42.594;23.414;2023-01-27T08:44:39;93523.41;;;1.24;90.47
42705;BME280;28342;42.594;23.414;2023-01-27T08:47:04;93537.63;;;1.37;90.96
42705;BME280;28342;42.594;23.414;2023-01-27T08:49:30;93550.69;;;1.42;91.07
42705;BME280;28342;42.594;23.414;2023-01-27T08:51:55;93553.63;;;1.30;91.42
42705;BME280;28342;42.594;23.414;2023-01-27T08:54:21;93503.84;;;1.16;91.30
42705;BME280;28342;42.594;23.414;2023-01-27T08:56:48;93516.13;;;1.16;90.78
42705;BME280;28342;42.594;23.414;2023-01-27T08:59:15;93509.16;;;1.01;91.57
42705;BME280;28342;42.594;23.414;2023-01-27T09:01:40;93546.81;;;1.34;91.60
42705;BME280;28342;42.594;23.414;2023-01-27T09:04:06;93521.91;;;1.13;92.01
42705;BME280;28342;42.594;23.414;2023-01-27T09:06:33;93547.91;;;1.28;92.69
42705;BME280;28342;42.594;23.414;2023-01-27T09:08:59;93541.25;;;1.07;92.48
42705;BME280;28342;42.594;23.414;2023-01-27T09:11:36;93538.22;;;0.95;92.42
42705;BME280;28342;42.594;23.414;2023-01-27T09:14:03;93563.06;;;1.26;91.92
42705;BME280;28342;42.594;23.414;2023-01-27T09:16:29;93566.25;;;1.23;91.62
42705;BME280;28342;42.594;23.414;2023-01-27T09:18:56;93557.13;;;1.15;92.60
42705;BME280;28342;42.594;23.414;2023-01-27T09:21:24;93554.25;;;1.17;92.80
42705;BME280;28342;42.594;23.414;2023-01-27T09:27:11;93539.66;;;1.11;91.87
42705;BME280;28342;42.594;23.414;2023-01-27T09:29:36;93500.63;;;0.90;91.31
42705;BME280;28342;42.594;23.414;2023-01-27T09:32:03;93532.38;;;1.08;92.18
42705;BME280;28342;42.594;23.414;2023-01-27T09:34:32;93529.78;;;1.08;91.79
42705;BME280;28342;42.594;23.414;2023-01-27T09:37:01;93499.81;;;0.95;91.57
42705;BME280;28342;42.594;23.414;2023-01-27T09:39:31;93538.81;;;1.20;92.23
42705;BME280;28342;42.594;23.414;2023-01-27T09:42:09;93546.63;;;1.26;92.47
42705;BME280;28342;42.594;23.414;2023-01-27T09:45:00;93547.31;;;1.36;92.03
42705;BME280;28342;42.594;23.414;2023-01-27T09:58:47;93517.88;;;1.26;92.61
42705;BME280;28342;42.594;23.414;2023-01-27T10:01:54;93513.31;;;1.41;92.59
42705;BME280;28342;42.594;23.414;2023-01-27T10:10:42;93485.25;;;1.23;92.38
42705;BME280;28342;42.594;23.414;2023-01-27T10:13:31;93473.84;;;1.14;92.17
42705;BME280;28342;42.594;23.414;2023-01-27T10:18:56;93447.75;;;1.09;91.56
42705;BME280;28342;42.594;23.414;2023-01-27T10:21:41;93506.50;;;1.45;91.47
42705;BME280;28342;42.594;23.414;2023-01-27T10:26:53;93495.00;;;1.12;92.42
42705;BME280;28342;42.594;23.414;2023-01-27T10:29:55;93468.72;;;0.99;93.03
42705;BME280;28342;42.594;23.414;2023-01-27T10:33:13;93466.38;;;0.97;92.89
42705;BME280;28342;42.594;23.414;2023-01-27T10:35:17;93506.16;;;1.23;92.86
42705;BME280;28342;42.594;23.414;2023-01-27T10:38:21;93483.94;;;1.26;92.11
42705;BME280;28342;42.594;23.414;2023-01-27T10:41:01;93445.66;;;1.11;92.06
42705;BME280;28342;42.594;23.414;2023-01-27T10:46:52;93495.97;;;1.50;92.15
42705;BME280;28342;42.594;23.414;2023-01-27T10:49:25;93499.56;;;1.60;91.39
42705;BME280;28342;42.594;23.414;2023-01-27T10:51:58;93511.66;;;1.56;91.84
42705;BME280;28342;42.594;23.414;2023-01-27T10:54:33;93473.63;;;1.39;92.10
42705;BME280;28342;42.594;23.414;2023-01-27T10:57:16;93451.44;;;1.08;91.25
42705;BME280;28342;42.594;23.414;2023-01-27T11:02:22;93462.97;;;1.31;91.58
42705;BME280;28342;42.594;23.414;2023-01-27T11:05:08;93471.09;;;1.29;91.80
42705;BME280;28342;42.594;23.414;2023-01-27T11:07:45;93427.16;;;1.02;91.86
42705;BME280;28342;42.594;23.414;2023-01-27T11:10:19;93487.94;;;1.47;92.21
42705;BME280;28342;42.594;23.414;2023-01-27T11:12:48;93483.81;;;1.41;92.32
42705;BME280;28342;42.594;23.414;2023-01-27T11:15:36;93446.09;;;1.23;91.93
42705;BME280;28342;42.594;23.414;2023-01-27T11:20:42;93455.44;;;1.29;91.23
42705;BME280;28342;42.594;23.414;2023-01-27T11:23:14;93469.72;;;1.37;91.53
42705;BME280;28342;42.594;23.414;2023-01-27T11:34:04;93473.63;;;1.39;92.79
42705;BME280;28342;42.594;23.414;2023-01-27T11:39:53;93438.03;;;1.14;92.82
42705;BME280;28342;42.594;23.414;2023-01-27T11:42:21;93446.59;;;1.20;92.55
42705;BME280;28342;42.594;23.414;2023-01-27T11:48:12;93408.72;;;0.94;93.12
42705;BME280;28342;42.594;23.414;2023-01-27T11:50:40;93434.19;;;1.07;93.22
42705;BME280;28342;42.594;23.414;2023-01-27T11:53:22;93459.66;;;1.20;93.63
42705;BME280;28342;42.594;23.414;2023-01-27T11:55:53;93463.44;;;1.09;94.15
42705;BME280;28342;42.594;23.414;2023-01-27T11:58:28;93432.09;;;1.09;93.47
42705;BME280;28342;42.594;23.414;2023-01-27T12:00:58;93446.44;;;1.11;92.69
42705;BME280;28342;42.594;23.414;2023-01-27T12:03:42;93464.25;;;1.33;93.05
42705;BME280;28342;42.594;23.414;2023-01-27T12:06:17;93463.44;;;1.09;93.18
42705;BME280;28342;42.594;23.414;2023-01-27T12:08:47;93450.06;;;1.15;93.14
42705;BME280;28342;42.594;23.414;2023-01-27T12:11:30;93462.25;;;1.25;92.94
42705;BME280;28342;42.594;23.414;2023-01-27T12:14:01;93460.56;;;1.39;92.99
42705;BME280;28342;42.594;23.414;2023-01-27T12:19:03;93406.63;;;0.96;92.48
42705;BME280;28342;42.594;23.414;2023-01-27T12:21:51;93442.38;;;1.29;92.19
42705;BME280;28342;42.594;23.414;2023-01-27T12:24:27;93467.53;;;1.49;92.58
42705;BME280;28342;42.594;23.414;2023-01-27T12:26:56;93444.38;;;1.37;92.60
42705;BME280;28342;42.594;23.414;2023-01-27T12:29:40;93438.34;;;1.37;92.21
42705;BME280;28342;42.594;23.414;2023-01-27T12:32:21;93458.91;;;1.48;92.01
42705;BME280;28342;42.594;23.414;2023-01-27T12:34:51;93427.69;;;1.33;92.08
42705;BME280;28342;42.594;23.414;2023-01-27T12:37:29;93431.28;;;1.42;92.17
42705;BME280;28342;42.594;23.414;2023-01-27T12:39:58;93445.97;;;1.33;92.15
42705;BME280;28342;42.594;23.414;2023-01-27T12:42:42;93467.84;;;1.42;92.22
42705;BME280;28342;42.594;23.414;2023-01-27T12:45:26;93411.50;;;1.02;93.15
42705;BME280;28342;42.594;23.414;2023-01-27T12:48:00;93466.38;;;1.31;93.57
42705;BME280;28342;42.594;23.414;2023-01-27T12:50:31;93464.09;;;1.25;94.00
42705;BME280;28342;42.594;23.414;2023-01-27T12:53:08;93458.47;;;1.36;93.93
42705;BME280;28342;42.594;23.414;2023-01-27T12:55:38;93456.00;;;1.21;93.80
42705;BME280;28342;42.594;23.414;2023-01-27T12:58:05;93436.41;;;0.89;93.32
42705;BME280;28342;42.594;23.414;2023-01-27T13:00:48;93449.34;;;1.05;93.75
42705;BME280;28342;42.594;23.414;2023-01-27T13:03:13;93417.75;;;0.72;94.68
42705;BME280;28342;42.594;23.414;2023-01-27T13:05:41;93433.47;;;0.62;95.67
42705;BME280;28342;42.594;23.414;2023-01-27T13:08:14;93430.34;;;0.60;95.97
42705;BME280;28342;42.594;23.414;2023-01-27T13:10:54;93456.81;;;0.82;95.95
42705;BME280;28342;42.594;23.414;2023-01-27T13:13:26;93439.22;;;0.59;96.70
42705;BME280;28342;42.594;23.414;2023-01-27T13:18:20;93437.56;;;0.73;96.18
42705;BME280;28342;42.594;23.414;2023-01-27T13:20:54;93432.44;;;0.63;95.45
42705;BME280;28342;42.594;23.414;2023-01-27T13:23:33;93431.94;;;0.56;96.51
42705;BME280;28342;42.594;23.414;2023-01-27T13:26:08;93465.72;;;0.76;96.10
42705;BME280;28342;42.594;23.414;2023-01-27T13:29:02;93465.22;;;0.79;95.98
42705;BME280;28342;42.594;23.414;2023-01-27T13:40:04;93475.66;;;0.79;97.48
42705;BME280;28342;42.594;23.414;2023-01-27T13:42:42;93440.84;;;0.50;96.94
42705;BME280;28342;42.594;23.414;2023-01-27T13:45:20;93409.06;;;0.43;97.01
42705;BME280;28342;42.594;23.414;2023-01-27T13:48:26;93413.44;;;0.08;98.48
42705;BME280;28342;42.594;23.414;2023-01-27T13:51:18;93471.59;;;0.58;97.99
42705;BME280;28342;42.594;23.414;2023-01-27T13:53:45;93424.41;;;0.05;97.68
42705;BME280;28342;42.594;23.414;2023-01-27T14:07:11;93450.78;;;0.43;96.05
42705;BME280;28342;42.594;23.414;2023-01-27T14:15:17;93488.53;;;0.66;96.27
42705;BME280;28342;42.594;23.414;2023-01-27T14:25:36;93474.75;;;0.55;94.69
42705;BME280;28342;42.594;23.414;2023-01-27T14:31:11;93493.34;;;0.87;95.12
42705;BME280;28342;42.594;23.414;2023-01-27T14:36:23;93488.72;;;0.74;94.25
42705;BME280;28342;42.594;23.414;2023-01-27T14:39:24;93503.22;;;0.90;93.80
42705;BME280;28342;42.594;23.414;2023-01-27T14:42:06;93476.25;;;0.66;94.29
42705;BME280;28342;42.594;23.414;2023-01-27T14:47:32;93514.72;;;0.95;93.97
42705;BME280;28342;42.594;23.414;2023-01-27T14:52:50;93466.03;;;0.70;93.14
42705;BME280;28342;42.594;23.414;2023-01-27T14:55:33;93486.56;;;0.86;93.57
42705;BME280;28342;42.594;23.414;2023-01-27T15:01:13;93516.28;;;0.90;93.93
42705;BME280;28342;42.594;23.414;2023-01-27T15:06:45;93522.13;;;0.72;93.61
42705;BME280;28342;42.594;23.414;2023-01-27T15:09:21;93528.72;;;0.59;93.81
42705;BME280;28342;42.594;23.414;2023-01-27T15:12:07;93521.59;;;0.75;94.36
42705;BME280;28342;42.594;23.414;2023-01-27T15:17:41;93525.78;;;0.71;93.61
42705;BME280;28342;42.594;23.414;2023-01-27T15:23:41;93516.78;;;0.48;93.97
42705;BME280;28342;42.594;23.414;2023-01-27T15:26:16;93509.19;;;0.52;94.05
42705;BME280;28342;42.594;23.414;2023-01-27T15:28:44;93537.09;;;0.62;94.08
42705;BME280;28342;42.594;23.414;2023-01-27T15:33:56;93501.84;;;0.59;93.63